sensor_id;sensor_type;location;lat;lon;timestamp;temperature;humidity
51567;DHT22;37657;53.182;5.638;2023-03-01T00:01:41;-0.20;99.90
51567;DHT22;37657;53.182;5.638;2023-03-01T00:04:06;-0.20;99.90
51567;DHT22;37657;53.182;5.638;2023-03-01T00:06:32;-0.30;99.90
51567;DHT22;37657;53.182;5.638;2023-03-01T00:08:58;-0.40;99.90
51567;DHT22;37657;53.182;5.638;2023-03-01T00:11:27;-0.40;99.90
51567;DHT22;37657;53.182;5.638;2023-03-01T00:13:56;-0.40;99.90
51567;DHT22;37657;53.182;5.638;2023-03-01T00:16:29;-0.50;99.90
51567;DHT22;37657;53.182;5.638;2023-03-01T00:18:56;-0.30;99.90
51567;DHT22;37657;53.182;5.638;2023-03-01T00:21:22;-0.40;99.90
51567;DHT22;37657;53.182;5.638;2023-03-01T00:23:48;-0.30;99.90
51567;DHT22;37657;53.182;5.638;2023-03-01T00:26:15;-0.30;99.90
51567;DHT22;37657;53.182;5.638;2023-03-01T00:28:42;-0.40;99.90
51567;DHT22;37657;53.182;5.638;2023-03-01T00:31:11;-0.30;99.90
51567;DHT22;37657;53.182;5.638;2023-03-01T00:33:37;-0.30;99.90
51567;DHT22;37657;53.182;5.638;2023-03-01T00:36:03;-0.40;99.90
51567;DHT22;37657;53.182;5.638;2023-03-01T00:38:29;-0.30;99.90
51567;DHT22;37657;53.182;5.638;2023-03-01T00:40:55;-0.30;99.90
51567;DHT22;37657;53.182;5.638;2023-03-01T00:43:21;-0.40;99.90
51567;DHT22;37657;53.182;5.638;2023-03-01T00:45:46;-0.50;99.90
51567;DHT22;37657;53.182;5.638;2023-03-01T00:48:12;-0.70;99.90
51567;DHT22;37657;53.182;5.638;2023-03-01T00:50:38;-0.70;99.90
51567;DHT22;37657;53.182;5.638;2023-03-01T00:53:03;-0.90;99.90
51567;DHT22;37657;53.182;5.638;2023-03-01T00:55:30;-1.00;99.90
51567;DHT22;37657;53.182;5.638;2023-03-01T00:57:56;-1.20;99.90
51567;DHT22;37657;53.182;5.638;2023-03-01T01:00:21;-1.10;99.90
51567;DHT22;37657;53.182;5.638;2023-03-01T01:02:47;-1.20;99.90
51567;DHT22;37657;53.182;5.638;2023-03-01T01:05:14;-1.20;99.90
51567;DHT22;37657;53.182;5.638;2023-03-01T01:07:39;-1.20;99.90
51567;DHT22;37657;53.182;5.638;2023-03-01T01:10:06;-1.30;99.90
51567;DHT22;37657;53.182;5.638;2023-03-01T01:12:32;-1.30;99.90
51567;DHT22;37657;53.182;5.638;2023-03-01T01:14:58;-1.30;99.90
51567;DHT22;37657;53.182;5.638;2023-03-01T01:17:24;-1.10;99.90
51567;DHT22;37657;53.182;5.638;2023-03-01T01:19:49;-1.00;99.90
51567;DHT22;37657;53.182;5.638;2023-03-01T01:22:15;-1.20;99.90
51567;DHT22;37657;53.182;5.638;2023-03-01T01:24:40;-1.00;99.90
51567;DHT22;37657;53.182;5.638;2023-03-01T01:27:06;-1.20;99.90
51567;DHT22;37657;53.182;5.638;2023-03-01T01:29:32;-1.10;99.90
51567;DHT22;37657;53.182;5.638;2023-03-01T01:31:58;-1.00;99.90
51567;DHT22;37657;53.182;5.638;2023-03-01T01:34:23;-1.20;99.90
51567;DHT22;37657;53.182;5.638;2023-03-01T01:36:51;-1.10;99.90
51567;DHT22;37657;53.182;5.638;2023-03-01T01:39:18;-0.90;99.90
51567;DHT22;37657;53.182;5.638;2023-03-01T01:41:44;-1.10;99.90
51567;DHT22;37657;53.182;5.638;2023-03-01T01:44:17;-0.90;99.90
51567;DHT22;37657;53.182;5.638;2023-03-01T01:49:33;-1.10;99.90
51567;DHT22;37657;53.182;5.638;2023-03-01T01:52:18;-0.90;99.90
51567;DHT22;37657;53.182;5.638;2023-03-01T01:57:25;-0.60;99.90
51567;DHT22;37657;53.182;5.638;2023-03-01T01:59:54;-0.80;99.90
51567;DHT22;37657;53.182;5.638;2023-03-01T02:02:21;-0.50;99.90
51567;DHT22;37657;53.182;5.638;2023-03-01T02:04:49;-0.70;99.90
51567;DHT22;37657;53.182;5.638;2023-03-01T02:07:18;-0.70;99.90
51567;DHT22;37657;53.182;5.638;2023-03-01T02:09:47;-0.70;99.90
51567;DHT22;37657;53.182;5.638;2023-03-01T02:12:18;-0.60;99.90
51567;DHT22;37657;53.182;5.638;2023-03-01T02:14:45;-0.80;99.90
51567;DHT22;37657;53.182;5.638;2023-03-01T02:17:12;-0.80;99.90
51567;DHT22;37657;53.182;5.638;2023-03-01T02:22:33;-1.10;99.90
51567;DHT22;37657;53.182;5.638;2023-03-01T02:25:24;-0.90;99.90
51567;DHT22;37657;53.182;5.638;2023-03-01T02:30:32;-0.90;99.90
51567;DHT22;37657;53.182;5.638;2023-03-01T02:33:00;-1.10;99.90
51567;DHT22;37657;53.182;5.638;2023-03-01T02:35:30;-0.90;99.90
51567;DHT22;37657;53.182;5.638;2023-03-01T02:37:57;-1.10;99.90
51567;DHT22;37657;53.182;5.638;2023-03-01T02:40:28;-1.10;99.90
51567;DHT22;37657;53.182;5.638;2023-03-01T02:42:57;-1.00;99.90
51567;DHT22;37657;53.182;5.638;2023-03-01T02:45:24;-1.00;99.90
51567;DHT22;37657;53.182;5.638;2023-03-01T02:47:50;-1.10;99.90
51567;DHT22;37657;53.182;5.638;2023-03-01T02:53:08;-1.00;99.90
51567;DHT22;37657;53.182;5.638;2023-03-01T02:55:36;-1.30;99.90
51567;DHT22;37657;53.182;5.638;2023-03-01T02:58:03;-1.20;99.90
51567;DHT22;37657;53.182;5.638;2023-03-01T03:00:34;-1.00;99.90
51567;DHT22;37657;53.182;5.638;2023-03-01T03:03:01;-1.20;99.90
51567;DHT22;37657;53.182;5.638;2023-03-01T03:05:28;-1.00;99.90
51567;DHT22;37657;53.182;5.638;2023-03-01T03:07:55;-1.20;99.90
51567;DHT22;37657;53.182;5.638;2023-03-01T03:10:27;-1.20;99.90
51567;DHT22;37657;53.182;5.638;2023-03-01T03:12:55;-1.10;99.90
51567;DHT22;37657;53.182;5.638;2023-03-01T03:15:22;-0.90;99.90
51567;DHT22;37657;53.182;5.638;2023-03-01T03:17:48;-1.00;99.90
51567;DHT22;37657;53.182;5.638;2023-03-01T03:20:16;-1.00;99.90
51567;DHT22;37657;53.182;5.638;2023-03-01T03:22:45;-1.20;99.90
51567;DHT22;37657;53.182;5.638;2023-03-01T03:25:11;-1.10;99.90
51567;DHT22;37657;53.182;5.638;2023-03-01T03:27:39;-1.40;99.90
51567;DHT22;37657;53.182;5.638;2023-03-01T03:30:07;-1.30;99.90
51567;DHT22;37657;53.182;5.638;2023-03-01T03:32:35;-1.30;99.90
51567;DHT22;37657;53.182;5.638;2023-03-01T03:35:03;-1.20;99.90
51567;DHT22;37657;53.182;5.638;2023-03-01T03:37:36;-1.40;99.90
51567;DHT22;37657;53.182;5.638;2023-03-01T03:40:21;-1.40;99.90
51567;DHT22;37657;53.182;5.638;2023-03-01T03:42:46;-1.10;99.90
51567;DHT22;37657;53.182;5.638;2023-03-01T03:45:13;-1.30;99.90
51567;DHT22;37657;53.182;5.638;2023-03-01T03:47:39;-1.10;99.90
51567;DHT22;37657;53.182;5.638;2023-03-01T03:50:05;-1.10;99.90
51567;DHT22;37657;53.182;5.638;2023-03-01T03:52:30;-1.10;99.90
51567;DHT22;37657;53.182;5.638;2023-03-01T03:54:56;-1.10;99.90
51567;DHT22;37657;53.182;5.638;2023-03-01T03:57:21;-0.80;99.90
51567;DHT22;37657;53.182;5.638;2023-03-01T03:59:47;-1.00;99.90
51567;DHT22;37657;53.182;5.638;2023-03-01T04:02:12;-0.60;99.90
51567;DHT22;37657;53.182;5.638;2023-03-01T04:04:38;-0.90;99.90
51567;DHT22;37657;53.182;5.638;2023-03-01T04:07:03;-0.60;99.90
51567;DHT22;37657;53.182;5.638;2023-03-01T04:09:29;-0.60;99.90
51567;DHT22;37657;53.182;5.638;2023-03-01T04:11:55;-0.50;99.90
51567;DHT22;37657;53.182;5.638;2023-03-01T04:14:21;-0.40;99.90
51567;DHT22;37657;53.182;5.638;2023-03-01T04:16:46;-0.50;99.90
51567;DHT22;37657;53.182;5.638;2023-03-01T04:19:12;-0.50;99.90
51567;DHT22;37657;53.182;5.638;2023-03-01T04:21:38;-0.70;99.90
51567;DHT22;37657;53.182;5.638;2023-03-01T04:24:04;-0.70;99.90
51567;DHT22;37657;53.182;5.638;2023-03-01T04:26:29;-0.70;99.90
51567;DHT22;37657;53.182;5.638;2023-03-01T04:28:55;-0.50;99.90
51567;DHT22;37657;53.182;5.638;2023-03-01T04:31:21;-0.70;99.90
51567;DHT22;37657;53.182;5.638;2023-03-01T04:33:52;-0.50;99.90
51567;DHT22;37657;53.182;5.638;2023-03-01T04:36:20;-0.70;99.90
51567;DHT22;37657;53.182;5.638;2023-03-01T04:38:46;-0.70;99.90
51567;DHT22;37657;53.182;5.638;2023-03-01T04:41:13;-0.60;99.90
51567;DHT22;37657;53.182;5.638;2023-03-01T04:43:39;-0.80;99.90
51567;DHT22;37657;53.182;5.638;2023-03-01T04:46:06;-0.70;99.90
51567;DHT22;37657;53.182;5.638;2023-03-01T04:48:35;-0.60;99.90
51567;DHT22;37657;53.182;5.638;2023-03-01T04:51:01;-0.80;99.90
51567;DHT22;37657;53.182;5.638;2023-03-01T04:53:28;-0.50;99.90
51567;DHT22;37657;53.182;5.638;2023-03-01T04:55:55;-0.60;99.90
51567;DHT22;37657;53.182;5.638;2023-03-01T04:58:26;-0.80;99.90
51567;DHT22;37657;53.182;5.638;2023-03-01T05:00:52;-0.70;99.90
51567;DHT22;37657;53.182;5.638;2023-03-01T05:03:19;-0.60;99.90
51567;DHT22;37657;53.182;5.638;2023-03-01T05:05:46;-0.40;99.90
51567;DHT22;37657;53.182;5.638;2023-03-01T05:08:13;-0.40;99.90
51567;DHT22;37657;53.182;5.638;2023-03-01T05:10:45;-0.40;99.90
51567;DHT22;37657;53.182;5.638;2023-03-01T05:13:12;-0.50;99.90
51567;DHT22;37657;53.182;5.638;2023-03-01T05:15:39;-0.60;99.90
51567;DHT22;37657;53.182;5.638;2023-03-01T05:18:05;-0.70;99.90
51567;DHT22;37657;53.182;5.638;2023-03-01T05:20:37;-0.70;99.90
51567;DHT22;37657;53.182;5.638;2023-03-01T05:23:03;-0.60;99.90
51567;DHT22;37657;53.182;5.638;2023-03-01T05:25:32;-0.70;99.90
51567;DHT22;37657;53.182;5.638;2023-03-01T05:27:59;-0.70;99.90
51567;DHT22;37657;53.182;5.638;2023-03-01T05:30:32;-0.80;99.90
51567;DHT22;37657;53.182;5.638;2023-03-01T05:32:59;-0.60;99.90
51567;DHT22;37657;53.182;5.638;2023-03-01T05:35:24;-0.90;99.90
51567;DHT22;37657;53.182;5.638;2023-03-01T05:37:50;-0.70;99.90
51567;DHT22;37657;53.182;5.638;2023-03-01T05:40:19;-0.80;99.90
51567;DHT22;37657;53.182;5.638;2023-03-01T05:42:49;-0.70;99.90
51567;DHT22;37657;53.182;5.638;2023-03-01T05:45:16;-0.60;99.90
51567;DHT22;37657;53.182;5.638;2023-03-01T05:47:44;-0.50;99.90
51567;DHT22;37657;53.182;5.638;2023-03-01T05:50:13;-0.60;99.90
51567;DHT22;37657;53.182;5.638;2023-03-01T05:52:39;-0.80;99.90
51567;DHT22;37657;53.182;5.638;2023-03-01T05:55:05;-0.60;99.90
51567;DHT22;37657;53.182;5.638;2023-03-01T05:57:31;-0.90;99.90
51567;DHT22;37657;53.182;5.638;2023-03-01T05:59:57;-0.80;99.90
51567;DHT22;37657;53.182;5.638;2023-03-01T06:02:22;-0.80;99.90
51567;DHT22;37657;53.182;5.638;2023-03-01T06:04:48;-0.80;99.90
51567;DHT22;37657;53.182;5.638;2023-03-01T06:07:13;-0.90;99.90
51567;DHT22;37657;53.182;5.638;2023-03-01T06:09:39;-0.80;99.90
51567;DHT22;37657;53.182;5.638;2023-03-01T06:12:05;-0.70;99.90
51567;DHT22;37657;53.182;5.638;2023-03-01T06:14:30;-0.70;99.90
51567;DHT22;37657;53.182;5.638;2023-03-01T06:16:56;-0.80;99.90
51567;DHT22;37657;53.182;5.638;2023-03-01T06:19:21;-0.90;99.90
51567;DHT22;37657;53.182;5.638;2023-03-01T06:21:47;-0.90;99.90
51567;DHT22;37657;53.182;5.638;2023-03-01T06:24:12;-0.70;99.90
51567;DHT22;37657;53.182;5.638;2023-03-01T06:26:38;-0.90;99.90
51567;DHT22;37657;53.182;5.638;2023-03-01T06:29:03;-0.80;99.90
51567;DHT22;37657;53.182;5.638;2023-03-01T06:31:29;-0.80;99.90
51567;DHT22;37657;53.182;5.638;2023-03-01T06:33:54;-1.00;99.90
51567;DHT22;37657;53.182;5.638;2023-03-01T06:36:20;-1.00;99.90
51567;DHT22;37657;53.182;5.638;2023-03-01T06:38:47;-1.10;99.90
51567;DHT22;37657;53.182;5.638;2023-03-01T06:41:12;-1.10;99.90
51567;DHT22;37657;53.182;5.638;2023-03-01T06:43:38;-0.80;99.90
51567;DHT22;37657;53.182;5.638;2023-03-01T06:46:05;-1.00;99.90
51567;DHT22;37657;53.182;5.638;2023-03-01T06:48:32;-0.70;99.90
51567;DHT22;37657;53.182;5.638;2023-03-01T06:50:59;-0.80;99.90
51567;DHT22;37657;53.182;5.638;2023-03-01T06:53:27;-0.60;99.90
51567;DHT22;37657;53.182;5.638;2023-03-01T06:55:56;-0.70;99.90
51567;DHT22;37657;53.182;5.638;2023-03-01T06:58:22;-0.50;99.90
51567;DHT22;37657;53.182;5.638;2023-03-01T07:00:48;-0.30;99.90
51567;DHT22;37657;53.182;5.638;2023-03-01T07:03:13;-0.40;99.90
51567;DHT22;37657;53.182;5.638;2023-03-01T07:05:39;-0.40;99.90
51567;DHT22;37657;53.182;5.638;2023-03-01T07:08:04;-0.10;99.90
51567;DHT22;37657;53.182;5.638;2023-03-01T07:10:30;0.10;99.90
51567;DHT22;37657;53.182;5.638;2023-03-01T07:12:57;-0.10;99.90
51567;DHT22;37657;53.182;5.638;2023-03-01T07:15:23;-0.20;99.90
51567;DHT22;37657;53.182;5.638;2023-03-01T07:17:49;-0.10;99.90
51567;DHT22;37657;53.182;5.638;2023-03-01T07:20:17;0.00;99.90
51567;DHT22;37657;53.182;5.638;2023-03-01T07:22:43;0.10;99.90
51567;DHT22;37657;53.182;5.638;2023-03-01T07:25:09;0.10;99.90
51567;DHT22;37657;53.182;5.638;2023-03-01T07:27:36;0.10;99.90
51567;DHT22;37657;53.182;5.638;2023-03-01T07:30:02;0.10;99.90
51567;DHT22;37657;53.182;5.638;2023-03-01T07:32:28;0.20;99.90
51567;DHT22;37657;53.182;5.638;2023-03-01T07:34:53;0.20;99.90
51567;DHT22;37657;53.182;5.638;2023-03-01T07:37:19;0.10;99.90
51567;DHT22;37657;53.182;5.638;2023-03-01T07:39:44;0.10;99.90
51567;DHT22;37657;53.182;5.638;2023-03-01T07:42:10;-0.10;99.90
51567;DHT22;37657;53.182;5.638;2023-03-01T07:44:35;-0.10;99.90
51567;DHT22;37657;53.182;5.638;2023-03-01T07:47:02;0.10;99.90
51567;DHT22;37657;53.182;5.638;2023-03-01T07:49:27;0.30;99.90
51567;DHT22;37657;53.182;5.638;2023-03-01T07:51:53;0.20;99.90
51567;DHT22;37657;53.182;5.638;2023-03-01T07:54:19;0.20;99.90
51567;DHT22;37657;53.182;5.638;2023-03-01T07:56:44;0.40;99.90
51567;DHT22;37657;53.182;5.638;2023-03-01T07:59:10;0.30;99.90
51567;DHT22;37657;53.182;5.638;2023-03-01T08:01:35;0.40;99.90
51567;DHT22;37657;53.182;5.638;2023-03-01T08:04:01;0.60;99.90
51567;DHT22;37657;53.182;5.638;2023-03-01T08:06:27;0.80;99.90
51567;DHT22;37657;53.182;5.638;2023-03-01T08:08:53;0.80;99.90
51567;DHT22;37657;53.182;5.638;2023-03-01T08:11:20;0.90;99.90
51567;DHT22;37657;53.182;5.638;2023-03-01T08:13:48;0.80;99.90
51567;DHT22;37657;53.182;5.638;2023-03-01T08:16:15;1.10;99.90
51567;DHT22;37657;53.182;5.638;2023-03-01T08:18:40;1.20;99.90
51567;DHT22;37657;53.182;5.638;2023-03-01T08:21:09;1.10;99.90
51567;DHT22;37657;53.182;5.638;2023-03-01T08:23:35;1.20;99.90
51567;DHT22;37657;53.182;5.638;2023-03-01T08:26:14;1.20;99.90
51567;DHT22;37657;53.182;5.638;2023-03-01T08:28:41;1.20;99.90
51567;DHT22;37657;53.182;5.638;2023-03-01T08:31:37;1.40;99.90
51567;DHT22;37657;53.182;5.638;2023-03-01T08:34:07;1.30;99.90
51567;DHT22;37657;53.182;5.638;2023-03-01T08:36:36;1.40;99.90
51567;DHT22;37657;53.182;5.638;2023-03-01T08:39:03;1.40;99.90
51567;DHT22;37657;53.182;5.638;2023-03-01T08:41:29;1.50;99.90
51567;DHT22;37657;53.182;5.638;2023-03-01T08:43:55;1.80;99.90
51567;DHT22;37657;53.182;5.638;2023-03-01T08:46:30;1.80;99.90
51567;DHT22;37657;53.182;5.638;2023-03-01T08:48:56;1.80;99.90
51567;DHT22;37657;53.182;5.638;2023-03-01T08:51:22;1.80;99.90
51567;DHT22;37657;53.182;5.638;2023-03-01T08:53:49;1.90;99.90
51567;DHT22;37657;53.182;5.638;2023-03-01T08:56:15;2.00;99.90
51567;DHT22;37657;53.182;5.638;2023-03-01T08:58:44;2.10;99.90
51567;DHT22;37657;53.182;5.638;2023-03-01T09:01:11;2.00;99.90
51567;DHT22;37657;53.182;5.638;2023-03-01T09:03:37;2.10;99.90
51567;DHT22;37657;53.182;5.638;2023-03-01T09:06:04;2.30;99.90
51567;DHT22;37657;53.182;5.638;2023-03-01T09:08:30;2.50;99.90
51567;DHT22;37657;53.182;5.638;2023-03-01T09:10:56;2.60;99.90
51567;DHT22;37657;53.182;5.638;2023-03-01T09:13:22;2.70;99.90
51567;DHT22;37657;53.182;5.638;2023-03-01T09:15:51;2.70;99.90
51567;DHT22;37657;53.182;5.638;2023-03-01T09:18:17;2.90;99.90
51567;DHT22;37657;53.182;5.638;2023-03-01T09:20:42;3.00;99.90
51567;DHT22;37657;53.182;5.638;2023-03-01T09:23:08;3.20;99.90
51567;DHT22;37657;53.182;5.638;2023-03-01T09:25:34;3.30;99.90
51567;DHT22;37657;53.182;5.638;2023-03-01T09:28:00;3.30;99.90
51567;DHT22;37657;53.182;5.638;2023-03-01T09:30:25;3.40;99.90
51567;DHT22;37657;53.182;5.638;2023-03-01T09:32:51;3.50;99.90
51567;DHT22;37657;53.182;5.638;2023-03-01T09:35:17;3.70;99.90
51567;DHT22;37657;53.182;5.638;2023-03-01T09:37:45;3.70;99.90
51567;DHT22;37657;53.182;5.638;2023-03-01T09:40:19;3.70;99.90
51567;DHT22;37657;53.182;5.638;2023-03-01T09:43:15;3.70;99.90
51567;DHT22;37657;53.182;5.638;2023-03-01T09:45:45;3.90;99.90
51567;DHT22;37657;53.182;5.638;2023-03-01T09:48:24;4.00;99.90
51567;DHT22;37657;53.182;5.638;2023-03-01T09:50:51;4.10;99.90
51567;DHT22;37657;53.182;5.638;2023-03-01T09:53:23;4.10;99.90
51567;DHT22;37657;53.182;5.638;2023-03-01T09:55:57;4.30;99.90
51567;DHT22;37657;53.182;5.638;2023-03-01T10:04:28;4.50;99.90
51567;DHT22;37657;53.182;5.638;2023-03-01T10:09:34;4.70;99.90
51567;DHT22;37657;53.182;5.638;2023-03-01T10:12:01;4.80;99.90
51567;DHT22;37657;53.182;5.638;2023-03-01T10:17:08;4.80;99.90
51567;DHT22;37657;53.182;5.638;2023-03-01T10:19:39;4.90;99.90
51567;DHT22;37657;53.182;5.638;2023-03-01T10:22:24;5.00;99.90
51567;DHT22;37657;53.182;5.638;2023-03-01T10:24:54;5.10;99.90
51567;DHT22;37657;53.182;5.638;2023-03-01T10:27:32;5.10;99.90
51567;DHT22;37657;53.182;5.638;2023-03-01T10:30:12;5.20;99.90
51567;DHT22;37657;53.182;5.638;2023-03-01T10:32:41;5.20;99.90
51567;DHT22;37657;53.182;5.638;2023-03-01T10:35:26;5.30;99.90
51567;DHT22;37657;53.182;5.638;2023-03-01T10:38:10;5.40;99.90
51567;DHT22;37657;53.182;5.638;2023-03-01T10:40:49;5.40;99.90
51567;DHT22;37657;53.182;5.638;2023-03-01T10:43:15;5.50;99.90
51567;DHT22;37657;53.182;5.638;2023-03-01T10:45:41;5.60;99.90
51567;DHT22;37657;53.182;5.638;2023-03-01T10:48:24;5.60;99.90
51567;DHT22;37657;53.182;5.638;2023-03-01T10:53:29;5.70;99.90
51567;DHT22;37657;53.182;5.638;2023-03-01T10:58:30;5.80;99.90
51567;DHT22;37657;53.182;5.638;2023-03-01T11:01:01;5.90;99.90
51567;DHT22;37657;53.182;5.638;2023-03-01T11:03:36;5.90;99.90
51567;DHT22;37657;53.182;5.638;2023-03-01T11:06:19;5.90;99.90
51567;DHT22;37657;53.182;5.638;2023-03-01T11:08:48;6.00;99.90
51567;DHT22;37657;53.182;5.638;2023-03-01T11:11:34;6.10;99.90
51567;DHT22;37657;53.182;5.638;2023-03-01T11:14:16;6.10;99.90
51567;DHT22;37657;53.182;5.638;2023-03-01T11:16:45;6.20;99.90
51567;DHT22;37657;53.182;5.638;2023-03-01T11:24:47;6.40;99.90
51567;DHT22;37657;53.182;5.638;2023-03-01T11:27:28;6.50;99.90
51567;DHT22;37657;53.182;5.638;2023-03-01T11:30:03;6.50;99.90
51567;DHT22;37657;53.182;5.638;2023-03-01T11:32:40;6.60;99.90
51567;DHT22;37657;53.182;5.638;2023-03-01T11:35:25;6.60;99.90
51567;DHT22;37657;53.182;5.638;2023-03-01T11:38:14;6.60;99.90
51567;DHT22;37657;53.182;5.638;2023-03-01T11:41:01;6.70;99.90
51567;DHT22;37657;53.182;5.638;2023-03-01T11:46:36;6.80;99.90
51567;DHT22;37657;53.182;5.638;2023-03-01T11:49:22;6.90;99.90
51567;DHT22;37657;53.182;5.638;2023-03-01T11:58:10;7.00;99.90
51567;DHT22;37657;53.182;5.638;2023-03-01T12:12:27;7.00;99.90
51567;DHT22;37657;53.182;5.638;2023-03-01T12:17:51;7.10;99.90
51567;DHT22;37657;53.182;5.638;2023-03-01T12:20:38;7.00;99.90
51567;DHT22;37657;53.182;5.638;2023-03-01T12:26:31;7.20;99.90
51567;DHT22;37657;53.182;5.638;2023-03-01T12:31:29;7.30;99.90
51567;DHT22;37657;53.182;5.638;2023-03-01T12:42:18;7.40;99.90
51567;DHT22;37657;53.182;5.638;2023-03-01T12:50:18;7.50;99.90
51567;DHT22;37657;53.182;5.638;2023-03-01T12:52:56;7.50;99.90
51567;DHT22;37657;53.182;5.638;2023-03-01T12:55:37;7.50;99.90
51567;DHT22;37657;53.182;5.638;2023-03-01T13:06:35;7.70;99.90
51567;DHT22;37657;53.182;5.638;2023-03-01T13:09:23;7.60;99.90
51567;DHT22;37657;53.182;5.638;2023-03-01T13:11:51;7.60;99.90
51567;DHT22;37657;53.182;5.638;2023-03-01T13:16:45;7.60;99.90
51567;DHT22;37657;53.182;5.638;2023-03-01T13:19:22;7.60;99.90
51567;DHT22;37657;53.182;5.638;2023-03-01T13:21:50;7.70;99.90
51567;DHT22;37657;53.182;5.638;2023-03-01T13:24:37;7.80;99.90
51567;DHT22;37657;53.182;5.638;2023-03-01T13:29:46;7.80;99.90
51567;DHT22;37657;53.182;5.638;2023-03-01T13:32:27;7.70;99.90
51567;DHT22;37657;53.182;5.638;2023-03-01T13:35:00;7.70;99.90
51567;DHT22;37657;53.182;5.638;2023-03-01T13:37:34;7.80;99.90
51567;DHT22;37657;53.182;5.638;2023-03-01T13:42:54;7.80;99.90
51567;DHT22;37657;53.182;5.638;2023-03-01T13:47:58;8.00;99.90
51567;DHT22;37657;53.182;5.638;2023-03-01T13:50:28;7.90;99.90
51567;DHT22;37657;53.182;5.638;2023-03-01T13:53:03;8.00;99.90
51567;DHT22;37657;53.182;5.638;2023-03-01T13:55:41;8.00;99.90
51567;DHT22;37657;53.182;5.638;2023-03-01T13:58:28;8.10;99.90
51567;DHT22;37657;53.182;5.638;2023-03-01T14:00:58;8.10;99.90
51567;DHT22;37657;53.182;5.638;2023-03-01T14:03:24;8.10;99.90
51567;DHT22;37657;53.182;5.638;2023-03-01T14:08:27;8.10;99.90
51567;DHT22;37657;53.182;5.638;2023-03-01T14:16:28;8.10;99.90
51567;DHT22;37657;53.182;5.638;2023-03-01T14:19:24;8.10;99.90
51567;DHT22;37657;53.182;5.638;2023-03-01T14:22:14;8.10;99.90
51567;DHT22;37657;53.182;5.638;2023-03-01T14:24:55;8.10;99.90
51567;DHT22;37657;53.182;5.638;2023-03-01T14:27:21;8.20;99.90
51567;DHT22;37657;53.182;5.638;2023-03-01T14:30:00;8.10;99.90
51567;DHT22;37657;53.182;5.638;2023-03-01T14:32:28;8.10;99.90
51567;DHT22;37657;53.182;5.638;2023-03-01T14:34:55;8.20;99.90
51567;DHT22;37657;53.182;5.638;2023-03-01T14:37:26;8.20;99.90
51567;DHT22;37657;53.182;5.638;2023-03-01T14:39:53;8.10;99.90
51567;DHT22;37657;53.182;5.638;2023-03-01T14:42:21;8.20;99.90
51567;DHT22;37657;53.182;5.638;2023-03-01T14:44:50;8.10;99.90
51567;DHT22;37657;53.182;5.638;2023-03-01T14:47:33;8.10;99.90
51567;DHT22;37657;53.182;5.638;2023-03-01T14:50:05;8.10;99.90
51567;DHT22;37657;53.182;5.638;2023-03-01T14:52:38;8.10;99.90
51567;DHT22;37657;53.182;5.638;2023-03-01T14:55:07;8.10;99.90
51567;DHT22;37657;53.182;5.638;2023-03-01T14:57:43;8.10;99.90
51567;DHT22;37657;53.182;5.638;2023-03-01T15:00:19;8.00;99.90
51567;DHT22;37657;53.182;5.638;2023-03-01T15:02:46;8.00;99.90
51567;DHT22;37657;53.182;5.638;2023-03-01T15:05:14;8.00;99.90
51567;DHT22;37657;53.182;5.638;2023-03-01T15:07:42;8.00;99.90
51567;DHT22;37657;53.182;5.638;2023-03-01T15:10:33;8.00;99.90
51567;DHT22;37657;53.182;5.638;2023-03-01T15:13:22;8.00;99.90
51567;DHT22;37657;53.182;5.638;2023-03-01T15:15:53;8.10;99.90
51567;DHT22;37657;53.182;5.638;2023-03-01T15:18:28;8.00;99.90
51567;DHT22;37657;53.182;5.638;2023-03-01T15:20:54;8.00;99.90
51567;DHT22;37657;53.182;5.638;2023-03-01T15:23:26;7.90;99.90
51567;DHT22;37657;53.182;5.638;2023-03-01T15:25:53;7.90;99.90
51567;DHT22;37657;53.182;5.638;2023-03-01T15:28:28;7.90;99.90
51567;DHT22;37657;53.182;5.638;2023-03-01T15:31:42;7.90;99.90
51567;DHT22;37657;53.182;5.638;2023-03-01T15:33:42;7.90;99.90
51567;DHT22;37657;53.182;5.638;2023-03-01T15:36:39;7.90;99.90
51567;DHT22;37657;53.182;5.638;2023-03-01T15:39:31;7.80;99.90
51567;DHT22;37657;53.182;5.638;2023-03-01T15:41:58;7.80;99.90
51567;DHT22;37657;53.182;5.638;2023-03-01T15:44:29;7.70;99.90
51567;DHT22;37657;53.182;5.638;2023-03-01T15:46:55;7.70;99.90
51567;DHT22;37657;53.182;5.638;2023-03-01T15:49:33;7.70;99.90
51567;DHT22;37657;53.182;5.638;2023-03-01T15:52:00;7.70;99.90
51567;DHT22;37657;53.182;5.638;2023-03-01T15:54:27;7.60;99.90
51567;DHT22;37657;53.182;5.638;2023-03-01T15:56:53;7.60;99.90
51567;DHT22;37657;53.182;5.638;2023-03-01T15:59:19;7.60;99.90
51567;DHT22;37657;53.182;5.638;2023-03-01T16:01:45;7.60;99.90
51567;DHT22;37657;53.182;5.638;2023-03-01T16:04:16;7.50;99.90
51567;DHT22;37657;53.182;5.638;2023-03-01T16:06:50;7.50;99.90
51567;DHT22;37657;53.182;5.638;2023-03-01T16:09:23;7.50;99.90
51567;DHT22;37657;53.182;5.638;2023-03-01T16:11:49;7.50;99.90
51567;DHT22;37657;53.182;5.638;2023-03-01T16:14:15;7.50;99.90
51567;DHT22;37657;53.182;5.638;2023-03-01T16:16:42;7.40;99.90
51567;DHT22;37657;53.182;5.638;2023-03-01T16:19:08;7.40;99.90
51567;DHT22;37657;53.182;5.638;2023-03-01T16:21:33;7.30;99.90
51567;DHT22;37657;53.182;5.638;2023-03-01T16:24:00;7.20;99.90
51567;DHT22;37657;53.182;5.638;2023-03-01T16:26:26;7.10;99.90
51567;DHT22;37657;53.182;5.638;2023-03-01T16:28:55;7.10;99.90
51567;DHT22;37657;53.182;5.638;2023-03-01T16:31:21;7.00;99.90
51567;DHT22;37657;53.182;5.638;2023-03-01T16:33:47;6.90;99.90
51567;DHT22;37657;53.182;5.638;2023-03-01T16:36:17;6.80;99.90
51567;DHT22;37657;53.182;5.638;2023-03-01T16:38:42;6.70;99.90
51567;DHT22;37657;53.182;5.638;2023-03-01T16:41:14;6.70;99.90
51567;DHT22;37657;53.182;5.638;2023-03-01T16:43:40;6.70;99.90
51567;DHT22;37657;53.182;5.638;2023-03-01T16:46:14;6.60;99.90
51567;DHT22;37657;53.182;5.638;2023-03-01T16:48:41;6.60;99.90
51567;DHT22;37657;53.182;5.638;2023-03-01T16:51:07;6.60;99.90
51567;DHT22;37657;53.182;5.638;2023-03-01T16:53:34;6.50;99.90
51567;DHT22;37657;53.182;5.638;2023-03-01T16:56:03;6.40;99.90
51567;DHT22;37657;53.182;5.638;2023-03-01T16:58:29;6.40;99.90
51567;DHT22;37657;53.182;5.638;2023-03-01T17:00:55;6.20;99.90
51567;DHT22;37657;53.182;5.638;2023-03-01T17:03:25;6.10;99.90
51567;DHT22;37657;53.182;5.638;2023-03-01T17:05:52;6.10;99.90
51567;DHT22;37657;53.182;5.638;2023-03-01T17:08:18;6.00;99.90
51567;DHT22;37657;53.182;5.638;2023-03-01T17:10:43;6.00;99.90
51567;DHT22;37657;53.182;5.638;2023-03-01T17:13:10;5.90;99.90
51567;DHT22;37657;53.182;5.638;2023-03-01T17:15:42;5.80;99.90
51567;DHT22;37657;53.182;5.638;2023-03-01T17:18:08;5.70;99.90
51567;DHT22;37657;53.182;5.638;2023-03-01T17:20:34;5.70;99.90
51567;DHT22;37657;53.182;5.638;2023-03-01T17:23:00;5.60;99.90
51567;DHT22;37657;53.182;5.638;2023-03-01T17:25:25;5.50;99.90
51567;DHT22;37657;53.182;5.638;2023-03-01T17:27:51;5.50;99.90
51567;DHT22;37657;53.182;5.638;2023-03-01T17:30:17;5.40;99.90
51567;DHT22;37657;53.182;5.638;2023-03-01T17:32:43;5.30;99.90
51567;DHT22;37657;53.182;5.638;2023-03-01T17:35:09;5.20;99.90
51567;DHT22;37657;53.182;5.638;2023-03-01T17:37:37;5.10;99.90
51567;DHT22;37657;53.182;5.638;2023-03-01T17:40:04;5.10;99.90